Airfield :
LOGIN :

Register | Disclaimer

   EN    FR    IT 

 










Legend :    VFR   Marginal VFR   IFR   Intensive IFR   Very Intensive IFR
Visi :
Ceiling :
>= 8 km
>= 3000ft
5 to 8 km
1000 to 3000 ft
1500m to 5 km
500 to 1000 ft
800 to 1500m
200 to 500 ft
< 800m
< 200 ft
Symbols :   Thunderstorms  Fog  Heavy snow  Heavy precipitations  Wind > 20 kt
SIGMETs :     Misc.  Thunderstorms  Icing  Turbulence  Mountain Waves  Volcanic Ashes






- Airport Elevation : 25 ft
- IATA code : QCY


EGXC - RAF Coningsby

CURRENT METAR :
  • 271420Z 31021KT 9999 FEW040 07/M02 Q1001 NOSIG RMK BLU BLU

EXPIRED METARs :
  • 271350Z 31017KT 9999 FEW036 07/M01 Q1000 NOSIG RMK BLU BLU
  • 271320Z 31021KT 9999 FEW035 07/M02 Q1000 NOSIG RMK BLU BLU
  • 271250Z 31018KT 9999 FEW028 07/M01 Q0999 NOSIG RMK BLU BLU
  • 271220Z 31019KT 9999 FEW027 06/M00 Q0999 NOSIG RMK BLU BLU
  • 271150Z 32014KT 9999 BKN023 06/00 Q0999 BECMG FEW024 RMK WHT BECMG BLU

TAF TAF EGXC
Valid from the 27 at 15:00 until the 28 at 09:00 UTC


271339Z 2715/2809 31017KT 9999 FEW035
TEMPO 2715/2718 31017G27KT
BECMG 2718/2720 27012KT



MET'MAP, your aeronautical weather chart ! - Copyright ORBIFLY December 2007 - Disclaimer

ORBIFLY MET'MAP TEAM :

Programming & Development : Alexandra Zaïnal
Concept & original design : Baudouin d'Aumeries
Assistance for programming : Marc-Olivier Méhu
Technical & hardware support : Manuel Goepfert

Contact : metmap@orbifly.com




SOURCES & CREDITS :

   NOAA